sensor_id;sensor_type;location;lat;lon;timestamp;P1;durP1;ratioP1;P2;durP2;ratioP2
26634;SDS011;14490;54.208;37.686;2023-11-19T00:01:07;25.92;;;9.23;;
26634;SDS011;14490;54.208;37.686;2023-11-19T00:03:36;23.88;;;8.75;;
26634;SDS011;14490;54.208;37.686;2023-11-19T00:06:04;15.68;;;7.43;;
26634;SDS011;14490;54.208;37.686;2023-11-19T00:08:32;20.60;;;7.53;;
26634;SDS011;14490;54.208;37.686;2023-11-19T00:10:59;18.05;;;6.85;;
26634;SDS011;14490;54.208;37.686;2023-11-19T00:13:26;18.10;;;7.28;;
26634;SDS011;14490;54.208;37.686;2023-11-19T00:15:54;21.70;;;7.32;;
26634;SDS011;14490;54.208;37.686;2023-11-19T00:18:23;19.30;;;7.82;;
26634;SDS011;14490;54.208;37.686;2023-11-19T00:20:50;13.52;;;6.75;;
26634;SDS011;14490;54.208;37.686;2023-11-19T00:23:17;18.45;;;7.97;;
26634;SDS011;14490;54.208;37.686;2023-11-19T00:25:45;17.05;;;6.78;;
26634;SDS011;14490;54.208;37.686;2023-11-19T00:28:13;19.95;;;7.10;;
26634;SDS011;14490;54.208;37.686;2023-11-19T00:30:40;19.55;;;6.75;;
26634;SDS011;14490;54.208;37.686;2023-11-19T00:33:07;18.63;;;7.93;;
26634;SDS011;14490;54.208;37.686;2023-11-19T00:35:36;18.27;;;7.53;;
26634;SDS011;14490;54.208;37.686;2023-11-19T00:38:03;15.13;;;7.57;;
26634;SDS011;14490;54.208;37.686;2023-11-19T00:40:31;24.90;;;9.02;;
26634;SDS011;14490;54.208;37.686;2023-11-19T00:42:58;21.52;;;8.55;;
26634;SDS011;14490;54.208;37.686;2023-11-19T00:45:38;25.35;;;8.95;;
26634;SDS011;14490;54.208;37.686;2023-11-19T00:48:05;20.60;;;7.22;;
26634;SDS011;14490;54.208;37.686;2023-11-19T00:50:33;20.65;;;7.18;;
26634;SDS011;14490;54.208;37.686;2023-11-19T00:53:02;20.08;;;8.30;;
26634;SDS011;14490;54.208;37.686;2023-11-19T00:55:29;16.92;;;7.32;;
26634;SDS011;14490;54.208;37.686;2023-11-19T00:57:57;15.02;;;7.35;;
26634;SDS011;14490;54.208;37.686;2023-11-19T01:00:24;17.33;;;8.18;;
26634;SDS011;14490;54.208;37.686;2023-11-19T01:02:52;26.25;;;8.75;;
26634;SDS011;14490;54.208;37.686;2023-11-19T01:05:19;16.80;;;6.82;;
26634;SDS011;14490;54.208;37.686;2023-11-19T01:07:48;15.55;;;6.45;;
26634;SDS011;14490;54.208;37.686;2023-11-19T01:10:18;15.52;;;8.10;;
26634;SDS011;14490;54.208;37.686;2023-11-19T01:12:45;15.18;;;6.25;;
26634;SDS011;14490;54.208;37.686;2023-11-19T01:15:13;11.02;;;5.78;;
26634;SDS011;14490;54.208;37.686;2023-11-19T01:17:40;12.35;;;5.57;;
26634;SDS011;14490;54.208;37.686;2023-11-19T01:20:09;10.45;;;5.53;;
26634;SDS011;14490;54.208;37.686;2023-11-19T01:22:38;19.40;;;7.18;;
26634;SDS011;14490;54.208;37.686;2023-11-19T01:25:06;17.85;;;5.32;;
26634;SDS011;14490;54.208;37.686;2023-11-19T01:27:35;10.50;;;6.05;;
26634;SDS011;14490;54.208;37.686;2023-11-19T01:30:02;12.93;;;5.80;;
26634;SDS011;14490;54.208;37.686;2023-11-19T01:32:31;13.20;;;5.88;;
26634;SDS011;14490;54.208;37.686;2023-11-19T01:34:58;15.23;;;6.22;;
26634;SDS011;14490;54.208;37.686;2023-11-19T01:37:26;13.18;;;5.68;;
26634;SDS011;14490;54.208;37.686;2023-11-19T01:39:53;11.85;;;5.28;;
26634;SDS011;14490;54.208;37.686;2023-11-19T01:42:20;15.00;;;5.72;;
26634;SDS011;14490;54.208;37.686;2023-11-19T01:45:00;11.70;;;6.40;;
26634;SDS011;14490;54.208;37.686;2023-11-19T01:47:28;16.85;;;7.00;;
26634;SDS011;14490;54.208;37.686;2023-11-19T01:49:57;15.00;;;6.88;;
26634;SDS011;14490;54.208;37.686;2023-11-19T01:52:25;16.67;;;7.40;;
26634;SDS011;14490;54.208;37.686;2023-11-19T01:54:53;22.77;;;7.13;;
26634;SDS011;14490;54.208;37.686;2023-11-19T01:57:30;15.93;;;7.25;;
26634;SDS011;14490;54.208;37.686;2023-11-19T01:59:58;21.42;;;7.53;;
26634;SDS011;14490;54.208;37.686;2023-11-19T02:02:28;22.35;;;5.93;;
26634;SDS011;14490;54.208;37.686;2023-11-19T02:04:56;11.93;;;7.32;;
26634;SDS011;14490;54.208;37.686;2023-11-19T02:07:24;17.17;;;7.60;;
26634;SDS011;14490;54.208;37.686;2023-11-19T02:09:51;14.48;;;7.22;;
26634;SDS011;14490;54.208;37.686;2023-11-19T02:12:19;22.90;;;7.07;;
26634;SDS011;14490;54.208;37.686;2023-11-19T02:14:46;13.60;;;6.60;;
26634;SDS011;14490;54.208;37.686;2023-11-19T02:17:27;11.75;;;5.15;;
26634;SDS011;14490;54.208;37.686;2023-11-19T02:19:56;16.95;;;6.25;;
26634;SDS011;14490;54.208;37.686;2023-11-19T02:22:24;12.65;;;6.80;;
26634;SDS011;14490;54.208;37.686;2023-11-19T02:24:56;14.38;;;6.18;;
26634;SDS011;14490;54.208;37.686;2023-11-19T02:27:39;16.40;;;6.70;;
26634;SDS011;14490;54.208;37.686;2023-11-19T02:30:19;11.38;;;5.78;;
26634;SDS011;14490;54.208;37.686;2023-11-19T02:32:51;17.15;;;5.97;;
26634;SDS011;14490;54.208;37.686;2023-11-19T02:35:18;9.38;;;6.32;;
26634;SDS011;14490;54.208;37.686;2023-11-19T02:37:46;13.65;;;6.53;;
26634;SDS011;14490;54.208;37.686;2023-11-19T02:40:14;16.88;;;6.03;;
26634;SDS011;14490;54.208;37.686;2023-11-19T02:42:44;15.13;;;6.88;;
26634;SDS011;14490;54.208;37.686;2023-11-19T02:45:11;18.77;;;6.80;;
26634;SDS011;14490;54.208;37.686;2023-11-19T02:47:39;14.35;;;6.18;;
26634;SDS011;14490;54.208;37.686;2023-11-19T02:50:07;15.68;;;6.38;;
26634;SDS011;14490;54.208;37.686;2023-11-19T02:52:39;18.80;;;7.55;;
26634;SDS011;14490;54.208;37.686;2023-11-19T02:55:07;20.83;;;7.65;;
26634;SDS011;14490;54.208;37.686;2023-11-19T02:57:37;20.73;;;7.70;;
26634;SDS011;14490;54.208;37.686;2023-11-19T03:00:13;12.43;;;6.95;;
26634;SDS011;14490;54.208;37.686;2023-11-19T03:02:57;25.75;;;7.70;;
26634;SDS011;14490;54.208;37.686;2023-11-19T03:05:25;11.70;;;6.47;;
26634;SDS011;14490;54.208;37.686;2023-11-19T03:07:55;19.87;;;7.60;;
26634;SDS011;14490;54.208;37.686;2023-11-19T03:10:23;19.55;;;7.70;;
26634;SDS011;14490;54.208;37.686;2023-11-19T03:12:52;20.67;;;7.63;;
26634;SDS011;14490;54.208;37.686;2023-11-19T03:15:23;19.13;;;6.80;;
26634;SDS011;14490;54.208;37.686;2023-11-19T03:17:49;10.02;;;5.82;;
26634;SDS011;14490;54.208;37.686;2023-11-19T03:20:17;16.42;;;7.13;;
26634;SDS011;14490;54.208;37.686;2023-11-19T03:22:46;16.55;;;7.07;;
26634;SDS011;14490;54.208;37.686;2023-11-19T03:25:13;10.65;;;6.30;;
26634;SDS011;14490;54.208;37.686;2023-11-19T03:27:41;13.05;;;6.68;;
26634;SDS011;14490;54.208;37.686;2023-11-19T03:30:08;18.00;;;8.10;;
26634;SDS011;14490;54.208;37.686;2023-11-19T03:32:38;17.67;;;8.07;;
26634;SDS011;14490;54.208;37.686;2023-11-19T03:35:06;17.83;;;6.35;;
26634;SDS011;14490;54.208;37.686;2023-11-19T03:37:34;13.27;;;5.97;;
26634;SDS011;14490;54.208;37.686;2023-11-19T03:40:02;18.45;;;6.63;;
26634;SDS011;14490;54.208;37.686;2023-11-19T03:42:31;17.10;;;6.53;;
26634;SDS011;14490;54.208;37.686;2023-11-19T03:44:58;11.88;;;6.40;;
26634;SDS011;14490;54.208;37.686;2023-11-19T03:47:25;12.32;;;6.70;;
26634;SDS011;14490;54.208;37.686;2023-11-19T03:49:55;17.60;;;6.80;;
26634;SDS011;14490;54.208;37.686;2023-11-19T03:52:22;12.45;;;6.22;;
26634;SDS011;14490;54.208;37.686;2023-11-19T03:54:49;24.52;;;7.25;;
26634;SDS011;14490;54.208;37.686;2023-11-19T03:57:17;12.60;;;6.28;;
26634;SDS011;14490;54.208;37.686;2023-11-19T03:59:44;21.23;;;6.70;;
26634;SDS011;14490;54.208;37.686;2023-11-19T04:02:11;12.18;;;5.75;;
26634;SDS011;14490;54.208;37.686;2023-11-19T04:04:39;11.23;;;5.13;;
26634;SDS011;14490;54.208;37.686;2023-11-19T04:07:07;18.58;;;6.68;;
26634;SDS011;14490;54.208;37.686;2023-11-19T04:09:35;10.20;;;6.20;;
26634;SDS011;14490;54.208;37.686;2023-11-19T04:12:03;12.55;;;6.35;;
26634;SDS011;14490;54.208;37.686;2023-11-19T04:14:31;14.98;;;5.90;;
26634;SDS011;14490;54.208;37.686;2023-11-19T04:16:59;19.52;;;6.40;;
26634;SDS011;14490;54.208;37.686;2023-11-19T04:19:26;15.50;;;6.18;;
26634;SDS011;14490;54.208;37.686;2023-11-19T04:21:54;23.75;;;7.75;;
26634;SDS011;14490;54.208;37.686;2023-11-19T04:24:23;18.83;;;7.38;;
26634;SDS011;14490;54.208;37.686;2023-11-19T04:26:52;18.38;;;8.18;;
26634;SDS011;14490;54.208;37.686;2023-11-19T04:29:20;16.15;;;7.25;;
26634;SDS011;14490;54.208;37.686;2023-11-19T04:31:47;12.30;;;7.38;;
26634;SDS011;14490;54.208;37.686;2023-11-19T04:34:14;15.82;;;7.93;;
26634;SDS011;14490;54.208;37.686;2023-11-19T04:36:53;23.45;;;7.88;;
26634;SDS011;14490;54.208;37.686;2023-11-19T04:39:40;16.70;;;7.40;;
26634;SDS011;14490;54.208;37.686;2023-11-19T04:42:08;21.95;;;7.55;;
26634;SDS011;14490;54.208;37.686;2023-11-19T04:44:37;14.48;;;6.72;;
26634;SDS011;14490;54.208;37.686;2023-11-19T04:47:05;18.25;;;6.50;;
26634;SDS011;14490;54.208;37.686;2023-11-19T04:49:32;12.02;;;6.40;;
26634;SDS011;14490;54.208;37.686;2023-11-19T04:51:59;17.83;;;5.90;;
26634;SDS011;14490;54.208;37.686;2023-11-19T04:54:28;14.15;;;6.53;;
26634;SDS011;14490;54.208;37.686;2023-11-19T04:56:56;10.77;;;6.68;;
26634;SDS011;14490;54.208;37.686;2023-11-19T04:59:24;10.43;;;5.38;;
26634;SDS011;14490;54.208;37.686;2023-11-19T05:01:52;9.55;;;5.97;;
26634;SDS011;14490;54.208;37.686;2023-11-19T05:04:20;12.20;;;5.95;;
26634;SDS011;14490;54.208;37.686;2023-11-19T05:06:47;13.23;;;6.40;;
26634;SDS011;14490;54.208;37.686;2023-11-19T05:09:14;11.48;;;6.50;;
26634;SDS011;14490;54.208;37.686;2023-11-19T05:11:42;7.82;;;5.43;;
26634;SDS011;14490;54.208;37.686;2023-11-19T05:14:13;10.00;;;6.43;;
26634;SDS011;14490;54.208;37.686;2023-11-19T05:16:41;11.85;;;6.13;;
26634;SDS011;14490;54.208;37.686;2023-11-19T05:19:11;14.65;;;5.97;;
26634;SDS011;14490;54.208;37.686;2023-11-19T05:21:41;16.30;;;6.00;;
26634;SDS011;14490;54.208;37.686;2023-11-19T05:24:11;13.15;;;5.57;;
26634;SDS011;14490;54.208;37.686;2023-11-19T05:26:39;12.60;;;6.82;;
26634;SDS011;14490;54.208;37.686;2023-11-19T05:29:06;18.50;;;6.97;;
26634;SDS011;14490;54.208;37.686;2023-11-19T05:31:35;12.35;;;6.35;;
26634;SDS011;14490;54.208;37.686;2023-11-19T05:34:02;17.88;;;6.03;;
26634;SDS011;14490;54.208;37.686;2023-11-19T05:36:30;19.45;;;7.57;;
26634;SDS011;14490;54.208;37.686;2023-11-19T05:39:00;11.75;;;6.10;;
26634;SDS011;14490;54.208;37.686;2023-11-19T05:41:28;12.32;;;6.03;;
26634;SDS011;14490;54.208;37.686;2023-11-19T05:43:55;9.88;;;4.97;;
26634;SDS011;14490;54.208;37.686;2023-11-19T05:46:22;9.93;;;5.68;;
26634;SDS011;14490;54.208;37.686;2023-11-19T05:48:52;10.88;;;6.07;;
26634;SDS011;14490;54.208;37.686;2023-11-19T05:51:19;8.25;;;5.57;;
26634;SDS011;14490;54.208;37.686;2023-11-19T05:53:49;11.95;;;5.68;;
26634;SDS011;14490;54.208;37.686;2023-11-19T05:56:16;12.05;;;5.45;;
26634;SDS011;14490;54.208;37.686;2023-11-19T05:58:47;7.53;;;4.20;;
26634;SDS011;14490;54.208;37.686;2023-11-19T06:01:14;13.85;;;5.32;;
26634;SDS011;14490;54.208;37.686;2023-11-19T06:03:41;6.45;;;4.70;;
26634;SDS011;14490;54.208;37.686;2023-11-19T06:06:14;13.23;;;5.95;;
26634;SDS011;14490;54.208;37.686;2023-11-19T06:08:41;8.23;;;5.28;;
26634;SDS011;14490;54.208;37.686;2023-11-19T06:11:09;8.02;;;4.43;;
26634;SDS011;14490;54.208;37.686;2023-11-19T06:13:43;7.70;;;3.13;;
26634;SDS011;14490;54.208;37.686;2023-11-19T06:16:11;5.43;;;3.67;;
26634;SDS011;14490;54.208;37.686;2023-11-19T06:18:41;8.43;;;4.45;;
26634;SDS011;14490;54.208;37.686;2023-11-19T06:21:09;10.75;;;5.05;;
26634;SDS011;14490;54.208;37.686;2023-11-19T06:23:37;13.15;;;5.45;;
26634;SDS011;14490;54.208;37.686;2023-11-19T06:26:05;9.02;;;5.30;;
26634;SDS011;14490;54.208;37.686;2023-11-19T06:28:34;22.60;;;7.25;;
26634;SDS011;14490;54.208;37.686;2023-11-19T06:31:01;19.80;;;7.22;;
26634;SDS011;14490;54.208;37.686;2023-11-19T06:33:32;23.73;;;8.77;;
26634;SDS011;14490;54.208;37.686;2023-11-19T06:35:59;26.80;;;10.35;;
26634;SDS011;14490;54.208;37.686;2023-11-19T06:38:28;27.20;;;12.23;;
26634;SDS011;14490;54.208;37.686;2023-11-19T06:40:57;32.63;;;12.55;;
26634;SDS011;14490;54.208;37.686;2023-11-19T06:43:27;35.10;;;14.25;;
26634;SDS011;14490;54.208;37.686;2023-11-19T06:45:54;36.05;;;14.13;;
26634;SDS011;14490;54.208;37.686;2023-11-19T06:48:23;42.95;;;15.35;;
26634;SDS011;14490;54.208;37.686;2023-11-19T06:50:52;41.50;;;16.52;;
26634;SDS011;14490;54.208;37.686;2023-11-19T06:53:20;44.10;;;17.38;;
26634;SDS011;14490;54.208;37.686;2023-11-19T06:55:47;45.75;;;16.90;;
26634;SDS011;14490;54.208;37.686;2023-11-19T06:58:16;59.95;;;22.65;;
26634;SDS011;14490;54.208;37.686;2023-11-19T07:00:43;41.92;;;17.65;;
26634;SDS011;14490;54.208;37.686;2023-11-19T07:03:12;45.35;;;17.42;;
26634;SDS011;14490;54.208;37.686;2023-11-19T07:05:39;39.28;;;17.50;;
26634;SDS011;14490;54.208;37.686;2023-11-19T07:08:07;42.22;;;16.23;;
26634;SDS011;14490;54.208;37.686;2023-11-19T07:10:34;31.65;;;13.93;;
26634;SDS011;14490;54.208;37.686;2023-11-19T07:13:01;21.15;;;10.50;;
26634;SDS011;14490;54.208;37.686;2023-11-19T07:15:43;35.13;;;11.43;;
26634;SDS011;14490;54.208;37.686;2023-11-19T07:18:11;20.88;;;10.50;;
26634;SDS011;14490;54.208;37.686;2023-11-19T07:20:39;15.63;;;8.25;;
26634;SDS011;14490;54.208;37.686;2023-11-19T07:23:07;13.23;;;6.55;;
26634;SDS011;14490;54.208;37.686;2023-11-19T07:25:34;19.88;;;8.30;;
26634;SDS011;14490;54.208;37.686;2023-11-19T07:28:02;13.25;;;5.05;;
26634;SDS011;14490;54.208;37.686;2023-11-19T07:30:30;15.20;;;6.38;;
26634;SDS011;14490;54.208;37.686;2023-11-19T07:32:58;10.27;;;6.50;;
26634;SDS011;14490;54.208;37.686;2023-11-19T07:35:26;13.18;;;5.35;;
26634;SDS011;14490;54.208;37.686;2023-11-19T07:37:55;10.10;;;5.22;;
26634;SDS011;14490;54.208;37.686;2023-11-19T07:40:23;4.00;;;2.90;;
26634;SDS011;14490;54.208;37.686;2023-11-19T07:42:50;13.82;;;3.83;;
26634;SDS011;14490;54.208;37.686;2023-11-19T07:45:19;4.53;;;2.70;;
26634;SDS011;14490;54.208;37.686;2023-11-19T07:47:46;7.30;;;2.90;;
26634;SDS011;14490;54.208;37.686;2023-11-19T07:50:18;6.97;;;2.00;;
26634;SDS011;14490;54.208;37.686;2023-11-19T07:52:45;2.92;;;2.38;;
26634;SDS011;14490;54.208;37.686;2023-11-19T07:55:18;2.97;;;2.05;;
26634;SDS011;14490;54.208;37.686;2023-11-19T07:57:46;4.63;;;1.98;;
26634;SDS011;14490;54.208;37.686;2023-11-19T08:00:17;11.27;;;2.38;;
26634;SDS011;14490;54.208;37.686;2023-11-19T08:02:49;2.88;;;1.55;;
26634;SDS011;14490;54.208;37.686;2023-11-19T08:08:25;3.33;;;2.13;;
26634;SDS011;14490;54.208;37.686;2023-11-19T08:10:54;3.15;;;1.60;;
26634;SDS011;14490;54.208;37.686;2023-11-19T08:13:24;5.57;;;2.38;;
26634;SDS011;14490;54.208;37.686;2023-11-19T08:15:52;5.30;;;2.08;;
26634;SDS011;14490;54.208;37.686;2023-11-19T08:18:36;4.05;;;1.77;;
26634;SDS011;14490;54.208;37.686;2023-11-19T08:21:08;1.73;;;1.63;;
26634;SDS011;14490;54.208;37.686;2023-11-19T08:23:38;3.97;;;1.90;;
26634;SDS011;14490;54.208;37.686;2023-11-19T08:26:09;8.40;;;2.92;;
26634;SDS011;14490;54.208;37.686;2023-11-19T08:28:45;5.20;;;2.60;;
26634;SDS011;14490;54.208;37.686;2023-11-19T08:31:30;3.15;;;2.05;;
26634;SDS011;14490;54.208;37.686;2023-11-19T08:34:09;2.83;;;2.00;;
26634;SDS011;14490;54.208;37.686;2023-11-19T08:36:54;3.97;;;2.85;;
26634;SDS011;14490;54.208;37.686;2023-11-19T08:39:26;7.15;;;2.80;;
26634;SDS011;14490;54.208;37.686;2023-11-19T08:41:54;4.50;;;3.30;;
26634;SDS011;14490;54.208;37.686;2023-11-19T08:44:29;5.70;;;3.97;;
26634;SDS011;14490;54.208;37.686;2023-11-19T08:46:56;8.77;;;4.30;;
26634;SDS011;14490;54.208;37.686;2023-11-19T08:49:33;7.47;;;4.35;;
26634;SDS011;14490;54.208;37.686;2023-11-19T08:52:06;11.30;;;5.40;;
26634;SDS011;14490;54.208;37.686;2023-11-19T08:54:36;6.53;;;5.20;;
26634;SDS011;14490;54.208;37.686;2023-11-19T08:57:07;6.18;;;5.05;;
26634;SDS011;14490;54.208;37.686;2023-11-19T08:59:38;9.27;;;4.25;;
26634;SDS011;14490;54.208;37.686;2023-11-19T09:02:07;9.90;;;5.72;;
26634;SDS011;14490;54.208;37.686;2023-11-19T09:04:39;9.98;;;5.15;;
26634;SDS011;14490;54.208;37.686;2023-11-19T09:07:11;10.68;;;4.22;;
26634;SDS011;14490;54.208;37.686;2023-11-19T09:09:44;10.57;;;4.68;;
26634;SDS011;14490;54.208;37.686;2023-11-19T09:12:15;11.60;;;4.25;;
26634;SDS011;14490;54.208;37.686;2023-11-19T09:14:52;8.60;;;4.75;;
26634;SDS011;14490;54.208;37.686;2023-11-19T09:17:19;15.25;;;4.95;;
26634;SDS011;14490;54.208;37.686;2023-11-19T09:19:51;8.85;;;4.47;;
26634;SDS011;14490;54.208;37.686;2023-11-19T09:22:19;8.27;;;4.85;;
26634;SDS011;14490;54.208;37.686;2023-11-19T09:24:47;7.00;;;3.97;;
26634;SDS011;14490;54.208;37.686;2023-11-19T09:27:15;5.18;;;3.63;;
26634;SDS011;14490;54.208;37.686;2023-11-19T09:29:45;6.20;;;3.90;;
26634;SDS011;14490;54.208;37.686;2023-11-19T09:32:15;5.30;;;3.40;;
26634;SDS011;14490;54.208;37.686;2023-11-19T09:34:46;12.15;;;4.00;;
26634;SDS011;14490;54.208;37.686;2023-11-19T09:37:16;7.07;;;4.10;;
26634;SDS011;14490;54.208;37.686;2023-11-19T09:39:44;8.60;;;4.07;;
26634;SDS011;14490;54.208;37.686;2023-11-19T09:42:12;4.47;;;3.38;;
26634;SDS011;14490;54.208;37.686;2023-11-19T09:44:39;9.02;;;3.33;;
26634;SDS011;14490;54.208;37.686;2023-11-19T09:47:17;5.60;;;3.13;;
26634;SDS011;14490;54.208;37.686;2023-11-19T09:49:55;7.35;;;3.38;;
26634;SDS011;14490;54.208;37.686;2023-11-19T09:52:22;5.47;;;3.45;;
26634;SDS011;14490;54.208;37.686;2023-11-19T09:54:54;4.87;;;4.10;;
26634;SDS011;14490;54.208;37.686;2023-11-19T09:57:27;7.40;;;4.05;;
26634;SDS011;14490;54.208;37.686;2023-11-19T09:59:58;6.82;;;4.28;;
26634;SDS011;14490;54.208;37.686;2023-11-19T10:02:29;7.63;;;4.60;;
26634;SDS011;14490;54.208;37.686;2023-11-19T10:05:06;10.68;;;5.85;;
26634;SDS011;14490;54.208;37.686;2023-11-19T10:07:50;6.40;;;4.85;;
26634;SDS011;14490;54.208;37.686;2023-11-19T10:10:25;10.43;;;5.10;;
26634;SDS011;14490;54.208;37.686;2023-11-19T10:12:56;8.93;;;5.55;;
26634;SDS011;14490;54.208;37.686;2023-11-19T10:15:27;10.15;;;4.72;;
26634;SDS011;14490;54.208;37.686;2023-11-19T10:18:06;6.22;;;3.72;;
26634;SDS011;14490;54.208;37.686;2023-11-19T10:20:41;3.72;;;3.22;;
26634;SDS011;14490;54.208;37.686;2023-11-19T10:23:12;6.30;;;3.53;;
26634;SDS011;14490;54.208;37.686;2023-11-19T10:25:42;3.50;;;3.10;;
26634;SDS011;14490;54.208;37.686;2023-11-19T10:28:10;4.47;;;3.20;;
26634;SDS011;14490;54.208;37.686;2023-11-19T10:30:52;7.78;;;3.70;;
26634;SDS011;14490;54.208;37.686;2023-11-19T10:33:23;6.78;;;3.72;;
26634;SDS011;14490;54.208;37.686;2023-11-19T10:35:59;7.40;;;4.25;;
26634;SDS011;14490;54.208;37.686;2023-11-19T10:38:40;4.45;;;3.20;;
26634;SDS011;14490;54.208;37.686;2023-11-19T10:41:30;7.63;;;3.42;;
26634;SDS011;14490;54.208;37.686;2023-11-19T10:44:02;5.15;;;2.95;;
26634;SDS011;14490;54.208;37.686;2023-11-19T10:46:41;4.95;;;3.60;;
26634;SDS011;14490;54.208;37.686;2023-11-19T10:49:09;7.78;;;4.10;;
26634;SDS011;14490;54.208;37.686;2023-11-19T10:51:38;9.48;;;4.85;;
26634;SDS011;14490;54.208;37.686;2023-11-19T10:54:18;5.63;;;3.75;;
26634;SDS011;14490;54.208;37.686;2023-11-19T10:56:53;7.95;;;3.60;;
26634;SDS011;14490;54.208;37.686;2023-11-19T10:59:26;6.47;;;4.20;;
26634;SDS011;14490;54.208;37.686;2023-11-19T11:02:10;4.72;;;3.08;;
26634;SDS011;14490;54.208;37.686;2023-11-19T11:04:47;4.97;;;3.40;;
26634;SDS011;14490;54.208;37.686;2023-11-19T11:07:16;2.72;;;2.47;;
26634;SDS011;14490;54.208;37.686;2023-11-19T11:09:57;3.63;;;2.97;;
26634;SDS011;14490;54.208;37.686;2023-11-19T11:12:50;9.23;;;3.83;;
26634;SDS011;14490;54.208;37.686;2023-11-19T11:15:27;6.35;;;4.38;;
26634;SDS011;14490;54.208;37.686;2023-11-19T11:17:59;8.43;;;3.75;;
26634;SDS011;14490;54.208;37.686;2023-11-19T11:20:28;4.97;;;3.03;;
26634;SDS011;14490;54.208;37.686;2023-11-19T11:26:26;4.18;;;3.50;;
26634;SDS011;14490;54.208;37.686;2023-11-19T11:29:30;4.70;;;3.03;;
26634;SDS011;14490;54.208;37.686;2023-11-19T11:32:14;7.65;;;3.85;;
26634;SDS011;14490;54.208;37.686;2023-11-19T11:35:03;4.50;;;3.47;;
26634;SDS011;14490;54.208;37.686;2023-11-19T11:37:53;5.45;;;3.38;;
26634;SDS011;14490;54.208;37.686;2023-11-19T11:40:33;11.02;;;4.10;;
26634;SDS011;14490;54.208;37.686;2023-11-19T11:43:03;5.55;;;2.85;;
26634;SDS011;14490;54.208;37.686;2023-11-19T11:45:43;5.72;;;3.80;;
26634;SDS011;14490;54.208;37.686;2023-11-19T11:48:12;4.28;;;3.45;;
26634;SDS011;14490;54.208;37.686;2023-11-19T11:50:47;9.77;;;4.68;;
26634;SDS011;14490;54.208;37.686;2023-11-19T11:53:25;6.05;;;3.83;;
26634;SDS011;14490;54.208;37.686;2023-11-19T11:55:57;5.50;;;4.45;;
26634;SDS011;14490;54.208;37.686;2023-11-19T11:58:30;8.10;;;3.75;;
26634;SDS011;14490;54.208;37.686;2023-11-19T12:01:17;7.65;;;3.42;;
26634;SDS011;14490;54.208;37.686;2023-11-19T12:03:57;7.10;;;3.53;;
26634;SDS011;14490;54.208;37.686;2023-11-19T12:06:28;4.05;;;3.25;;
26634;SDS011;14490;54.208;37.686;2023-11-19T12:08:59;5.55;;;3.85;;
26634;SDS011;14490;54.208;37.686;2023-11-19T12:11:33;5.70;;;2.70;;
26634;SDS011;14490;54.208;37.686;2023-11-19T12:14:02;6.88;;;4.60;;
26634;SDS011;14490;54.208;37.686;2023-11-19T12:16:34;6.15;;;4.10;;
26634;SDS011;14490;54.208;37.686;2023-11-19T12:19:13;4.35;;;3.13;;
26634;SDS011;14490;54.208;37.686;2023-11-19T12:21:43;6.10;;;3.20;;
26634;SDS011;14490;54.208;37.686;2023-11-19T12:24:11;4.35;;;3.30;;
26634;SDS011;14490;54.208;37.686;2023-11-19T12:26:39;9.00;;;4.57;;
26634;SDS011;14490;54.208;37.686;2023-11-19T12:29:09;8.57;;;4.47;;
26634;SDS011;14490;54.208;37.686;2023-11-19T12:31:53;9.52;;;4.93;;
26634;SDS011;14490;54.208;37.686;2023-11-19T12:34:22;8.77;;;4.03;;
26634;SDS011;14490;54.208;37.686;2023-11-19T12:36:53;7.93;;;4.07;;
26634;SDS011;14490;54.208;37.686;2023-11-19T12:39:21;4.53;;;3.67;;
26634;SDS011;14490;54.208;37.686;2023-11-19T12:41:52;5.38;;;3.67;;
26634;SDS011;14490;54.208;37.686;2023-11-19T12:44:22;4.10;;;3.10;;
26634;SDS011;14490;54.208;37.686;2023-11-19T12:47:03;5.85;;;3.33;;
26634;SDS011;14490;54.208;37.686;2023-11-19T12:49:39;6.85;;;3.55;;
26634;SDS011;14490;54.208;37.686;2023-11-19T12:52:12;9.30;;;4.53;;
26634;SDS011;14490;54.208;37.686;2023-11-19T12:54:49;5.72;;;3.85;;
26634;SDS011;14490;54.208;37.686;2023-11-19T12:57:16;7.45;;;4.00;;
26634;SDS011;14490;54.208;37.686;2023-11-19T12:59:55;5.28;;;3.80;;
26634;SDS011;14490;54.208;37.686;2023-11-19T13:02:34;6.00;;;4.45;;
26634;SDS011;14490;54.208;37.686;2023-11-19T13:05:25;18.92;;;4.60;;
26634;SDS011;14490;54.208;37.686;2023-11-19T13:07:58;5.82;;;4.05;;
26634;SDS011;14490;54.208;37.686;2023-11-19T13:13:57;10.23;;;4.90;;
26634;SDS011;14490;54.208;37.686;2023-11-19T13:17:12;8.40;;;4.28;;
26634;SDS011;14490;54.208;37.686;2023-11-19T13:19:48;4.85;;;4.05;;
26634;SDS011;14490;54.208;37.686;2023-11-19T13:22:19;7.05;;;4.25;;
26634;SDS011;14490;54.208;37.686;2023-11-19T13:24:46;5.18;;;4.35;;
26634;SDS011;14490;54.208;37.686;2023-11-19T13:27:15;7.85;;;5.00;;
26634;SDS011;14490;54.208;37.686;2023-11-19T13:29:45;6.90;;;4.65;;
26634;SDS011;14490;54.208;37.686;2023-11-19T13:32:13;6.40;;;4.65;;
26634;SDS011;14490;54.208;37.686;2023-11-19T13:34:40;13.63;;;5.53;;
26634;SDS011;14490;54.208;37.686;2023-11-19T13:37:11;12.38;;;6.82;;
26634;SDS011;14490;54.208;37.686;2023-11-19T13:39:41;9.63;;;6.05;;
26634;SDS011;14490;54.208;37.686;2023-11-19T13:42:08;7.20;;;5.57;;
26634;SDS011;14490;54.208;37.686;2023-11-19T13:44:38;7.25;;;5.05;;
26634;SDS011;14490;54.208;37.686;2023-11-19T13:47:13;7.80;;;4.55;;
26634;SDS011;14490;54.208;37.686;2023-11-19T13:49:40;7.68;;;4.50;;
26634;SDS011;14490;54.208;37.686;2023-11-19T13:55:07;7.65;;;4.72;;
26634;SDS011;14490;54.208;37.686;2023-11-19T13:57:38;12.57;;;4.05;;
26634;SDS011;14490;54.208;37.686;2023-11-19T14:00:14;11.13;;;5.20;;
26634;SDS011;14490;54.208;37.686;2023-11-19T14:02:44;12.73;;;4.80;;
26634;SDS011;14490;54.208;37.686;2023-11-19T14:05:18;8.18;;;5.00;;
26634;SDS011;14490;54.208;37.686;2023-11-19T14:07:47;5.10;;;4.60;;
26634;SDS011;14490;54.208;37.686;2023-11-19T14:10:21;13.45;;;5.95;;
26634;SDS011;14490;54.208;37.686;2023-11-19T14:12:52;8.60;;;5.72;;
26634;SDS011;14490;54.208;37.686;2023-11-19T14:15:33;6.82;;;5.35;;
26634;SDS011;14490;54.208;37.686;2023-11-19T14:18:04;7.60;;;5.50;;
26634;SDS011;14490;54.208;37.686;2023-11-19T14:20:49;8.23;;;5.45;;
26634;SDS011;14490;54.208;37.686;2023-11-19T14:23:17;5.00;;;4.22;;
26634;SDS011;14490;54.208;37.686;2023-11-19T14:25:46;8.65;;;5.57;;
26634;SDS011;14490;54.208;37.686;2023-11-19T14:28:19;7.75;;;5.70;;
26634;SDS011;14490;54.208;37.686;2023-11-19T14:30:50;6.87;;;5.67;;
26634;SDS011;14490;54.208;37.686;2023-11-19T14:33:23;6.00;;;4.72;;
26634;SDS011;14490;54.208;37.686;2023-11-19T14:35:54;6.93;;;5.40;;
26634;SDS011;14490;54.208;37.686;2023-11-19T14:38:24;8.25;;;5.90;;
26634;SDS011;14490;54.208;37.686;2023-11-19T14:40:51;11.18;;;5.60;;
26634;SDS011;14490;54.208;37.686;2023-11-19T14:43:25;10.73;;;6.20;;
26634;SDS011;14490;54.208;37.686;2023-11-19T14:45:59;16.25;;;6.60;;
26634;SDS011;14490;54.208;37.686;2023-11-19T14:48:28;16.05;;;6.55;;
26634;SDS011;14490;54.208;37.686;2023-11-19T14:50:57;6.45;;;5.78;;
26634;SDS011;14490;54.208;37.686;2023-11-19T14:53:30;9.10;;;6.75;;
26634;SDS011;14490;54.208;37.686;2023-11-19T14:56:00;8.73;;;6.88;;
26634;SDS011;14490;54.208;37.686;2023-11-19T14:58:32;13.98;;;6.60;;
26634;SDS011;14490;54.208;37.686;2023-11-19T15:01:01;14.63;;;6.63;;